createdAt,value
2019-01-23T00:00:41.098Z,0.29
2019-01-23T00:05:48.112Z,0.23
2019-01-23T00:10:54.557Z,0.38
2019-01-23T00:16:02.196Z,0.15
2019-01-23T00:21:09.236Z,0.07
2019-01-23T00:26:17.896Z,0.10
2019-01-23T00:31:24.785Z,-0.18
2019-01-23T00:36:30.946Z,-0.06
2019-01-23T00:41:37.685Z,-0.01
2019-01-23T00:46:44.605Z,0.04
2019-01-23T00:51:51.443Z,0.00
2019-01-23T00:56:58.028Z,-0.33
2019-01-23T01:02:06.033Z,-0.17
2019-01-23T01:07:13.380Z,-0.10
2019-01-23T01:12:19.585Z,-0.37
2019-01-23T01:17:27.107Z,0.11
2019-01-23T01:22:34.764Z,-0.20
2019-01-23T01:27:41.330Z,-0.29
2019-01-23T01:32:47.463Z,-0.09
2019-01-23T01:37:55.064Z,-0.12
2019-01-23T01:43:01.881Z,-0.39
2019-01-23T01:48:08.143Z,-0.18
2019-01-23T01:53:15.920Z,-0.18
2019-01-23T01:58:23.595Z,-0.14
2019-01-23T02:03:30.405Z,-0.05
2019-01-23T02:08:37.339Z,-0.07
2019-01-23T02:13:44.937Z,-0.19
2019-01-23T02:18:53.511Z,-0.06
2019-01-23T02:24:01.504Z,-0.16
2019-01-23T02:29:09.604Z,-0.20
2019-01-23T02:34:16.471Z,-0.07
2019-01-23T02:39:22.358Z,0.14
2019-01-23T02:44:28.995Z,-0.02
2019-01-23T02:49:35.302Z,0.12
2019-01-23T02:54:43.513Z,-0.03
2019-01-23T02:59:50.172Z,-0.18
2019-01-23T03:04:59.147Z,0.10
2019-01-23T03:10:12.923Z,0.29
2019-01-23T03:15:25.189Z,0.06
2019-01-23T03:20:34.361Z,0.34
2019-01-23T03:25:43.146Z,0.15
2019-01-23T03:30:55.942Z,0.07
2019-01-23T03:36:04.487Z,0.18
2019-01-23T03:41:13.605Z,-0.10
2019-01-23T03:46:23.480Z,-0.08
2019-01-23T03:51:32.066Z,-0.10
2019-01-23T03:56:41.711Z,0.11
2019-01-23T04:01:50.622Z,0.04
2019-01-23T04:07:00.528Z,0.21
2019-01-23T04:12:09.764Z,0.08
2019-01-23T04:17:18.915Z,-0.14
2019-01-23T04:22:26.290Z,-0.26
2019-01-23T04:27:34.249Z,-0.20
2019-01-23T04:32:42.939Z,0.21
2019-01-23T04:37:54.710Z,-0.11
2019-01-23T04:43:03.374Z,-0.18
2019-01-23T04:48:12.593Z,0.09
2019-01-23T04:53:22.774Z,0.27
2019-01-23T04:58:31.377Z,-0.01
2019-01-23T05:03:39.575Z,0.17
2019-01-23T05:14:09.562Z,-0.03
2019-01-23T05:19:18.971Z,-0.18
2019-01-23T05:24:27.823Z,-0.28
2019-01-23T05:29:36.745Z,-0.22
2019-01-23T05:34:45.503Z,-0.44
2019-01-23T05:39:58.633Z,-0.49
2019-01-23T05:45:12.667Z,-0.74
2019-01-23T05:50:20.854Z,-0.90
2019-01-23T05:55:28.472Z,-0.43
2019-01-23T06:00:37.320Z,-0.61
2019-01-23T06:05:44.596Z,-0.60
2019-01-23T06:10:51.848Z,-0.18
2019-01-23T06:16:00.291Z,-0.38
2019-01-23T06:21:08.721Z,-0.27
2019-01-23T06:26:19.848Z,-0.22
2019-01-23T06:31:28.831Z,-0.46
2019-01-23T06:36:38.593Z,-0.42
2019-01-23T06:41:49.503Z,-0.38
2019-01-23T06:46:58.104Z,-0.32
2019-01-23T06:52:07.914Z,-0.72
2019-01-23T06:57:19.986Z,-0.67
2019-01-23T07:02:29.936Z,-0.55
2019-01-23T07:07:38.771Z,-0.23
2019-01-23T07:12:51.641Z,-0.72
2019-01-23T07:18:00.328Z,-0.28
2019-01-23T07:28:49.164Z,-0.53
2019-01-23T07:33:54.590Z,-0.51
2019-01-23T07:39:04.812Z,-0.60
2019-01-23T07:44:14.179Z,-0.86
2019-01-23T07:49:23.180Z,-0.53
2019-01-23T07:54:32.431Z,-0.90
2019-01-23T07:59:42.374Z,-0.20
2019-01-23T08:04:51.510Z,-0.48
2019-01-23T08:10:00.245Z,-0.17
2019-01-23T08:15:19.143Z,-0.49
2019-01-23T08:20:32.650Z,0.10
2019-01-23T08:25:43.221Z,-0.07
2019-01-23T08:30:52.496Z,0.32
2019-01-23T08:36:05.555Z,0.35
2019-01-23T08:41:13.686Z,0.43
2019-01-23T08:46:23.232Z,0.56
2019-01-23T08:51:32.548Z,0.57
2019-01-23T08:56:49.511Z,0.54
2019-01-23T09:01:59.944Z,0.85
2019-01-23T09:07:08.780Z,0.61
2019-01-23T09:12:16.807Z,0.63
2019-01-23T09:17:25.255Z,0.77
2019-01-23T09:22:34.579Z,0.77
2019-01-23T09:27:42.911Z,1.44
2019-01-23T09:33:10.279Z,1.49
2019-01-23T09:38:25.932Z,1.65
2019-01-23T09:43:43.235Z,1.53
2019-01-23T09:49:11.027Z,2.04
2019-01-23T09:54:18.324Z,2.09
2019-01-23T09:59:30.807Z,1.79
2019-01-23T10:04:38.517Z,2.03
2019-01-23T10:09:47.386Z,1.75
2019-01-23T10:14:56.518Z,2.01
2019-01-23T10:20:04.378Z,2.24
2019-01-23T10:25:13.677Z,2.74
2019-01-23T10:30:22.046Z,2.83
2019-01-23T10:35:32.569Z,2.64
2019-01-23T10:40:41.783Z,3.04
2019-01-23T10:45:51.719Z,3.34
2019-01-23T10:50:59.571Z,3.17
2019-01-23T10:56:07.381Z,3.29
2019-01-23T11:01:14.479Z,3.65
2019-01-23T11:06:21.711Z,3.33
2019-01-23T11:11:30.338Z,3.42
2019-01-23T11:16:37.340Z,3.70
2019-01-23T11:21:43.351Z,3.79
2019-01-23T11:26:49.346Z,4.03
2019-01-23T11:31:55.104Z,4.30
2019-01-23T11:37:00.844Z,4.06
2019-01-23T11:42:06.778Z,4.49
2019-01-23T11:47:15.655Z,4.89
2019-01-23T11:52:23.881Z,4.89
2019-01-23T11:57:29.750Z,4.67
2019-01-23T12:02:37.071Z,4.17
2019-01-23T12:07:44.769Z,4.08
2019-01-23T12:12:52.594Z,4.39
2019-01-23T12:17:58.529Z,4.29
2019-01-23T12:23:05.073Z,3.99
2019-01-23T12:28:11.748Z,3.86
2019-01-23T12:33:17.645Z,3.41
2019-01-23T12:38:24.465Z,3.36
2019-01-23T12:43:30.418Z,3.12
2019-01-23T12:48:36.579Z,2.33
2019-01-23T12:53:42.342Z,2.26
2019-01-23T12:58:48.049Z,2.35
2019-01-23T13:03:54.264Z,2.01
2019-01-23T13:09:00.977Z,1.91
2019-01-23T13:14:08.730Z,1.86
2019-01-23T13:19:14.836Z,2.08
2019-01-23T13:24:20.919Z,2.26
2019-01-23T13:29:28.388Z,2.12
2019-01-23T13:34:34.635Z,2.08
2019-01-23T13:39:41.248Z,1.96
2019-01-23T13:44:47.161Z,2.58
2019-01-23T13:49:53.826Z,2.73
2019-01-23T13:55:00.286Z,2.17
2019-01-23T14:00:10.454Z,1.98
2019-01-23T14:05:16.598Z,2.02
2019-01-23T14:10:24.233Z,2.07
2019-01-23T14:15:35.690Z,1.58
2019-01-23T14:20:42.606Z,1.65
2019-01-23T14:25:49.068Z,1.52
2019-01-23T14:30:55.343Z,1.44
2019-01-23T14:36:02.490Z,1.16
2019-01-23T14:41:08.229Z,1.41
2019-01-23T14:46:16.388Z,1.25
2019-01-23T14:51:22.652Z,1.22
2019-01-23T14:56:28.701Z,0.84
2019-01-23T15:01:35.077Z,1.19
2019-01-23T15:06:43.472Z,1.03
2019-01-23T15:11:49.454Z,0.51
2019-01-23T15:16:56.033Z,0.24
2019-01-23T15:22:04.605Z,0.45
2019-01-23T15:27:10.622Z,0.32
2019-01-23T15:32:17.440Z,-0.01
2019-01-23T15:37:23.979Z,-0.21
2019-01-23T15:42:29.884Z,0.26
2019-01-23T15:47:37.926Z,0.74
2019-01-23T15:52:43.651Z,0.87
2019-01-23T15:57:49.321Z,0.92
2019-01-23T16:02:55.587Z,0.93
2019-01-23T16:08:02.987Z,0.81
2019-01-23T16:13:10.196Z,0.77
2019-01-23T16:18:16.183Z,0.90
2019-01-23T16:23:24.820Z,0.74
2019-01-23T16:28:31.302Z,0.57
2019-01-23T16:33:38.485Z,0.55
2019-01-23T16:38:45.905Z,0.78
2019-01-23T16:43:52.338Z,0.13
2019-01-23T16:49:00.214Z,0.86
2019-01-23T16:54:07.589Z,0.59
2019-01-23T16:59:14.173Z,0.60
2019-01-23T17:04:21.282Z,0.75
2019-01-23T17:09:27.405Z,0.68
2019-01-23T17:14:33.472Z,0.75
2019-01-23T17:19:40.207Z,0.71
2019-01-23T17:24:47.870Z,0.43
2019-01-23T17:29:56.731Z,0.53
2019-01-23T17:35:03.568Z,0.25
2019-01-23T17:40:14.606Z,-0.41
2019-01-23T17:45:29.821Z,0.26
2019-01-23T17:50:37.377Z,0.28
2019-01-23T17:55:43.424Z,0.57
2019-01-23T18:00:51.012Z,0.58
2019-01-23T18:05:58.789Z,0.76
2019-01-23T18:11:04.871Z,0.65
2019-01-23T18:16:10.670Z,0.80
2019-01-23T18:21:16.263Z,0.73
2019-01-23T18:32:08.403Z,0.63
2019-01-23T18:37:45.122Z,0.41
2019-01-23T18:55:21.274Z,0.43
2019-01-23T19:00:29.072Z,0.37
2019-01-23T19:05:36.759Z,0.74
2019-01-23T19:10:43.306Z,0.73
2019-01-23T19:15:49.968Z,0.46
2019-01-23T19:20:57.456Z,0.52
2019-01-23T19:26:04.766Z,0.95
2019-01-23T19:31:13.031Z,0.94
2019-01-23T19:36:19.914Z,1.06
2019-01-23T19:41:26.004Z,1.25
2019-01-23T19:46:31.794Z,1.32
2019-01-23T19:51:38.182Z,1.28
2019-01-23T19:56:43.955Z,1.04
2019-01-23T20:01:51.359Z,1.15
2019-01-23T20:06:57.136Z,0.56
2019-01-23T20:12:03.560Z,0.51
2019-01-23T20:17:10.299Z,0.73
2019-01-23T20:22:16.914Z,0.64
2019-01-23T20:27:22.857Z,0.75
2019-01-23T20:32:28.821Z,1.17
2019-01-23T20:37:35.057Z,1.38
2019-01-23T20:42:41.590Z,1.20
2019-01-23T20:47:47.826Z,1.29
2019-01-23T20:52:54.889Z,1.42
2019-01-23T20:58:00.921Z,1.62
2019-01-23T21:03:06.832Z,1.52
2019-01-23T21:08:12.780Z,1.48
2019-01-23T21:13:20.156Z,1.47
2019-01-23T21:18:25.924Z,1.38
2019-01-23T21:23:31.982Z,1.67
2019-01-23T21:28:38.168Z,1.40
2019-01-23T21:33:43.824Z,1.37
2019-01-23T21:38:50.790Z,1.46
2019-01-23T21:43:56.772Z,1.72
2019-01-23T21:49:02.754Z,1.66
2019-01-23T21:54:08.875Z,1.84
2019-01-23T21:59:14.826Z,1.63
2019-01-23T22:04:22.727Z,1.43
2019-01-23T22:09:28.475Z,1.31
2019-01-23T22:14:35.937Z,1.85
2019-01-23T22:19:41.783Z,2.18
2019-01-23T22:24:47.890Z,2.01
2019-01-23T22:29:54.530Z,2.09
2019-01-23T22:35:00.462Z,2.29
2019-01-23T22:40:09.460Z,2.14
2019-01-23T22:45:17.575Z,2.37
2019-01-23T22:50:25.753Z,2.13
2019-01-23T22:55:31.528Z,2.51
2019-01-23T23:00:43.171Z,2.15
2019-01-23T23:05:49.154Z,2.11
2019-01-23T23:10:55.201Z,2.30
2019-01-23T23:16:01.878Z,2.53
2019-01-23T23:21:09.528Z,2.25
2019-01-23T23:26:15.756Z,2.11
2019-01-23T23:31:23.667Z,2.48
2019-01-23T23:36:30.967Z,2.45
2019-01-23T23:41:36.874Z,2.41
2019-01-23T23:46:44.186Z,1.96
2019-01-23T23:51:50.059Z,1.95
2019-01-23T23:56:56.295Z,2.44
